createdAt,value
2023-02-23T00:00:25.571Z,17.48
2023-02-23T00:01:25.554Z,17.62
2023-02-23T00:02:25.574Z,17.54
2023-02-23T00:03:25.583Z,17.56
2023-02-23T00:04:25.549Z,17.51
2023-02-23T00:05:25.548Z,17.56
2023-02-23T00:06:25.561Z,17.55
2023-02-23T00:07:25.533Z,17.58
2023-02-23T00:08:25.514Z,17.56
2023-02-23T00:09:25.518Z,17.64
2023-02-23T00:10:25.528Z,17.55
2023-02-23T00:11:25.501Z,17.51
2023-02-23T00:12:25.509Z,17.62
2023-02-23T00:13:25.577Z,17.58
2023-02-23T00:14:25.483Z,17.51
2023-02-23T00:15:25.498Z,17.52
2023-02-23T00:16:25.559Z,17.51
2023-02-23T00:17:25.484Z,17.55
2023-02-23T00:18:25.475Z,17.48
2023-02-23T00:19:25.491Z,17.41
2023-02-23T00:20:25.465Z,17.52
2023-02-23T00:21:25.470Z,17.48
2023-02-23T00:22:25.474Z,17.52
2023-02-23T00:23:25.463Z,17.52
2023-02-23T00:24:25.456Z,17.48
2023-02-23T00:25:25.442Z,17.63
2023-02-23T00:26:25.453Z,17.48
2023-02-23T00:27:25.457Z,17.55
2023-02-23T00:28:25.455Z,17.58
2023-02-23T00:29:25.469Z,17.49
2023-02-23T00:30:25.439Z,17.48
2023-02-23T00:31:25.455Z,17.48
2023-02-23T00:32:25.595Z,17.58
2023-02-23T00:33:25.436Z,17.48
2023-02-23T00:34:25.406Z,17.51
2023-02-23T00:35:25.408Z,17.48
2023-02-23T00:36:25.444Z,17.44
2023-02-23T00:37:25.425Z,17.46
2023-02-23T00:38:25.418Z,17.51
2023-02-23T00:39:25.420Z,17.48
2023-02-23T00:40:25.388Z,17.48
2023-02-23T00:41:25.402Z,17.48
2023-02-23T00:42:25.430Z,17.49
2023-02-23T00:43:25.383Z,17.48
2023-02-23T00:44:25.470Z,17.48
2023-02-23T00:45:25.393Z,17.48
2023-02-23T00:46:25.379Z,17.55
2023-02-23T00:47:25.380Z,17.49
2023-02-23T00:48:25.379Z,17.48
2023-02-23T00:49:25.361Z,17.51
2023-02-23T00:50:25.385Z,17.48
2023-02-23T00:51:25.379Z,17.49
2023-02-23T00:52:25.368Z,17.49
2023-02-23T00:53:25.388Z,17.55
2023-02-23T00:54:25.390Z,17.43
2023-02-23T00:55:25.383Z,17.44
2023-02-23T00:56:25.335Z,17.48
2023-02-23T00:57:25.342Z,17.55
2023-02-23T00:58:25.385Z,17.54
2023-02-23T00:59:25.328Z,17.43
2023-02-23T01:00:25.310Z,17.49
2023-02-23T01:01:25.378Z,17.40
2023-02-23T01:02:25.350Z,17.55
2023-02-23T01:03:25.316Z,17.43
2023-02-23T01:04:25.319Z,17.46
2023-02-23T01:05:25.310Z,17.51
2023-02-23T01:06:25.287Z,17.48
2023-02-23T01:07:25.285Z,17.48
2023-02-23T01:08:25.281Z,17.51
2023-02-23T01:09:25.297Z,17.51
2023-02-23T01:10:25.286Z,17.46
2023-02-23T01:11:25.269Z,17.54
2023-02-23T01:12:25.258Z,17.54
2023-02-23T01:13:25.259Z,17.52
2023-02-23T01:14:25.272Z,17.52
2023-02-23T01:15:25.312Z,17.52
2023-02-23T01:16:25.270Z,17.46
2023-02-23T01:17:25.278Z,17.51
2023-02-23T01:18:25.234Z,17.52
2023-02-23T01:19:25.252Z,17.56
2023-02-23T01:20:27.277Z,17.41
2023-02-23T01:21:25.239Z,17.41
2023-02-23T01:22:25.229Z,17.46
2023-02-23T01:23:25.221Z,17.49
2023-02-23T01:24:25.237Z,17.51
2023-02-23T01:25:25.219Z,17.51
2023-02-23T01:26:25.235Z,17.43
2023-02-23T01:27:25.218Z,17.54
2023-02-23T01:28:25.199Z,17.43
2023-02-23T01:29:25.420Z,17.44
2023-02-23T01:30:25.254Z,17.44
2023-02-23T01:31:25.321Z,17.46
2023-02-23T01:32:25.197Z,17.54
2023-02-23T01:33:25.195Z,17.51
2023-02-23T01:34:25.167Z,17.44
2023-02-23T01:35:25.177Z,17.51
2023-02-23T01:36:25.165Z,17.46
2023-02-23T01:37:25.161Z,17.51
2023-02-23T01:38:25.161Z,17.38
2023-02-23T01:39:25.285Z,17.52
2023-02-23T01:40:25.139Z,17.48
2023-02-23T01:41:25.139Z,17.46
2023-02-23T01:42:25.150Z,17.41
2023-02-23T01:43:25.147Z,17.46
2023-02-23T01:44:25.126Z,17.49
2023-02-23T01:45:25.141Z,17.44
2023-02-23T01:46:25.154Z,17.44
2023-02-23T01:47:25.127Z,17.48
2023-02-23T01:48:25.121Z,17.43
2023-02-23T01:49:25.136Z,17.49
2023-02-23T01:50:25.113Z,17.46
2023-02-23T01:51:25.119Z,17.44
2023-02-23T01:52:25.110Z,17.44
2023-02-23T01:53:25.121Z,17.43
2023-02-23T01:54:25.087Z,17.46
2023-02-23T01:55:25.091Z,17.43
2023-02-23T01:56:25.096Z,17.49
2023-02-23T01:57:25.264Z,17.41
2023-02-23T01:58:25.093Z,17.46
2023-02-23T01:59:25.085Z,17.36
2023-02-23T02:00:25.074Z,17.46
2023-02-23T02:01:25.113Z,17.46
2023-02-23T02:02:25.054Z,17.46
2023-02-23T02:03:25.053Z,17.44
2023-02-23T02:04:25.053Z,17.43
2023-02-23T02:05:25.076Z,17.48
2023-02-23T02:06:25.061Z,17.44
2023-02-23T02:07:25.064Z,17.49
2023-02-23T02:08:25.051Z,17.41
2023-02-23T02:09:25.058Z,17.46
2023-02-23T02:10:25.032Z,17.41
2023-02-23T02:11:25.049Z,17.48
2023-02-23T02:12:25.030Z,17.51
2023-02-23T02:13:25.010Z,17.48
2023-02-23T02:14:25.015Z,17.41
2023-02-23T02:15:25.037Z,17.41
2023-02-23T02:16:25.060Z,17.46
2023-02-23T02:17:25.002Z,17.40
2023-02-23T02:18:24.988Z,17.37
2023-02-23T02:19:25.022Z,17.41
2023-02-23T02:20:24.997Z,17.49
2023-02-23T02:21:25.017Z,17.48
2023-02-23T02:22:24.972Z,17.40
2023-02-23T02:23:24.977Z,17.36
2023-02-23T02:24:24.991Z,17.43
2023-02-23T02:25:24.981Z,17.46
2023-02-23T02:26:24.980Z,17.43
2023-02-23T02:27:24.970Z,17.41
2023-02-23T02:28:24.956Z,17.49
2023-02-23T02:29:24.952Z,17.48
2023-02-23T02:30:24.991Z,17.44
2023-02-23T02:31:24.966Z,17.40
2023-02-23T02:32:24.991Z,17.41
2023-02-23T02:33:24.949Z,17.43
2023-02-23T02:34:24.958Z,17.44
2023-02-23T02:35:24.931Z,17.48
2023-02-23T02:36:24.926Z,17.48
2023-02-23T02:37:24.944Z,17.43
2023-02-23T02:38:24.927Z,17.38
2023-02-23T02:39:24.923Z,17.46
2023-02-23T02:40:24.902Z,17.46
2023-02-23T02:41:24.911Z,17.46
2023-02-23T02:42:24.904Z,17.40
2023-02-23T02:43:24.920Z,17.48
2023-02-23T02:44:24.898Z,17.44
2023-02-23T02:45:24.896Z,17.48
2023-02-23T02:46:24.987Z,17.46
2023-02-23T02:47:24.898Z,17.46
2023-02-23T02:48:24.893Z,17.44
2023-02-23T02:49:24.893Z,17.46
2023-02-23T02:50:24.890Z,17.49
2023-02-23T02:51:24.897Z,17.44
2023-02-23T02:52:24.877Z,17.40
2023-02-23T02:53:24.893Z,17.31
2023-02-23T02:54:24.854Z,17.44
2023-02-23T02:55:24.860Z,17.43
2023-02-23T02:56:24.842Z,17.49
2023-02-23T02:57:24.862Z,17.44
2023-02-23T02:58:24.842Z,17.43
2023-02-23T02:59:24.851Z,17.46
2023-02-23T03:00:24.833Z,17.36
2023-02-23T03:01:24.842Z,17.46
2023-02-23T03:02:24.843Z,17.37
2023-02-23T03:03:24.832Z,17.33
2023-02-23T03:04:24.811Z,17.44
2023-02-23T03:05:24.854Z,17.31
2023-02-23T03:06:24.820Z,17.46
2023-02-23T03:07:24.799Z,17.34
2023-02-23T03:08:24.803Z,17.38
2023-02-23T03:09:24.827Z,17.43
2023-02-23T03:10:24.804Z,17.40
2023-02-23T03:11:24.795Z,17.46
2023-02-23T03:12:24.798Z,17.30
2023-02-23T03:13:24.782Z,17.41
2023-02-23T03:14:24.784Z,17.28
2023-02-23T03:15:24.793Z,17.44
2023-02-23T03:16:24.814Z,17.31
2023-02-23T03:17:24.791Z,17.43
2023-02-23T03:18:24.794Z,17.28
2023-02-23T03:19:24.771Z,17.31
2023-02-23T03:20:24.785Z,17.33
2023-02-23T03:21:24.743Z,17.25
2023-02-23T03:22:24.749Z,17.40
2023-02-23T03:23:24.749Z,17.31
2023-02-23T03:24:24.739Z,17.34
2023-02-23T03:25:24.756Z,17.31
2023-02-23T03:26:24.739Z,17.25
2023-02-23T03:27:24.743Z,17.33
2023-02-23T03:28:24.730Z,17.36
2023-02-23T03:29:24.709Z,17.33
2023-02-23T03:30:24.765Z,17.38
2023-02-23T03:31:24.750Z,17.33
2023-02-23T03:32:24.919Z,17.33
2023-02-23T03:33:24.694Z,17.36
2023-02-23T03:34:24.698Z,17.28
2023-02-23T03:35:24.691Z,17.40
2023-02-23T03:36:24.700Z,17.44
2023-02-23T03:37:24.682Z,17.41
2023-02-23T03:38:24.694Z,17.41
2023-02-23T03:39:24.684Z,17.28
2023-02-23T03:40:24.670Z,17.33
2023-02-23T03:41:24.683Z,17.28
2023-02-23T03:42:24.665Z,17.31
2023-02-23T03:43:24.667Z,17.40
2023-02-23T03:44:24.657Z,17.31
2023-02-23T03:45:24.707Z,17.28
2023-02-23T03:46:24.649Z,17.28
2023-02-23T03:47:24.647Z,17.26
2023-02-23T03:48:24.641Z,17.28
2023-02-23T03:49:24.648Z,17.33
2023-02-23T03:50:24.651Z,17.37
2023-02-23T03:51:24.618Z,17.44
2023-02-23T03:52:24.636Z,17.43
2023-02-23T03:53:24.630Z,17.34
2023-02-23T03:54:24.635Z,17.36
2023-02-23T03:55:24.608Z,17.28
2023-02-23T03:56:24.617Z,17.33
2023-02-23T03:57:24.676Z,17.31
2023-02-23T03:58:24.610Z,17.36
2023-02-23T03:59:24.582Z,17.40
2023-02-23T04:00:24.597Z,17.40
2023-02-23T04:01:24.578Z,17.28
2023-02-23T04:02:24.579Z,17.31
2023-02-23T04:03:24.701Z,17.31
2023-02-23T04:04:24.567Z,17.28
2023-02-23T04:05:24.569Z,17.41
2023-02-23T04:06:24.581Z,17.36
2023-02-23T04:07:24.570Z,17.36
2023-02-23T04:08:24.562Z,17.34
2023-02-23T04:09:24.578Z,17.33
2023-02-23T04:10:24.552Z,17.37
2023-02-23T04:11:24.551Z,17.28
2023-02-23T04:12:24.545Z,17.43
2023-02-23T04:13:24.560Z,17.31
2023-02-23T04:14:24.532Z,17.41
2023-02-23T04:15:24.534Z,17.33
2023-02-23T04:16:24.546Z,17.33
2023-02-23T04:17:24.515Z,17.41
2023-02-23T04:18:24.549Z,17.44
2023-02-23T04:19:24.509Z,17.41
2023-02-23T04:20:24.502Z,17.28
2023-02-23T04:21:24.508Z,17.46
2023-02-23T04:22:24.508Z,17.41
2023-02-23T04:23:24.511Z,17.34
2023-02-23T04:24:24.492Z,17.31
2023-02-23T04:25:24.504Z,17.30
2023-02-23T04:26:24.489Z,17.30
2023-02-23T04:27:24.471Z,17.36
2023-02-23T04:28:24.495Z,17.41
2023-02-23T04:29:24.497Z,17.44
2023-02-23T04:30:24.588Z,17.36
2023-02-23T04:31:25.355Z,17.38
2023-02-23T04:32:24.522Z,17.30
2023-02-23T04:33:24.449Z,17.34
2023-02-23T04:34:24.446Z,17.33
2023-02-23T04:35:24.461Z,17.33
2023-02-23T04:36:24.469Z,17.43
2023-02-23T04:37:24.446Z,17.33
2023-02-23T04:38:24.443Z,17.36
2023-02-23T04:39:24.427Z,17.36
2023-02-23T04:40:24.521Z,17.28
2023-02-23T04:41:24.453Z,17.28
2023-02-23T04:42:24.439Z,17.30
2023-02-23T04:43:24.443Z,17.33
2023-02-23T04:44:24.409Z,17.30
2023-02-23T04:45:24.547Z,17.33
2023-02-23T04:46:24.408Z,17.37
2023-02-23T04:47:24.406Z,17.33
2023-02-23T04:48:24.406Z,17.34
2023-02-23T04:49:24.391Z,17.34
2023-02-23T04:50:24.401Z,17.37
2023-02-23T04:51:24.393Z,17.28
2023-02-23T04:52:24.394Z,17.33
2023-02-23T04:53:24.400Z,17.28
2023-02-23T04:54:24.380Z,17.40
2023-02-23T04:55:24.366Z,17.38
2023-02-23T04:56:24.372Z,17.28
2023-02-23T04:57:24.366Z,17.36
2023-02-23T04:58:24.367Z,17.31
2023-02-23T04:59:24.366Z,17.34
2023-02-23T05:00:24.363Z,17.36
2023-02-23T05:01:24.409Z,17.30
2023-02-23T05:02:24.357Z,17.38
2023-02-23T05:03:24.341Z,17.36
2023-02-23T05:04:24.339Z,17.33
2023-02-23T05:05:24.339Z,17.34
2023-02-23T05:06:24.343Z,17.31
2023-02-23T05:07:24.323Z,17.31
2023-02-23T05:08:24.328Z,17.37
2023-02-23T05:09:24.317Z,17.30
2023-02-23T05:10:24.311Z,17.33
2023-02-23T05:11:24.324Z,17.34
2023-02-23T05:12:24.360Z,17.34
2023-02-23T05:13:24.286Z,17.33
2023-02-23T05:14:24.304Z,17.33
2023-02-23T05:15:24.306Z,17.26
2023-02-23T05:16:24.306Z,17.33
2023-02-23T05:17:24.293Z,17.26
2023-02-23T05:18:24.292Z,17.30
2023-02-23T05:19:24.283Z,17.33
2023-02-23T05:20:24.287Z,17.26
2023-02-23T05:21:24.267Z,17.28
2023-02-23T05:22:24.282Z,17.31
2023-02-23T05:23:24.263Z,17.26
2023-02-23T05:24:24.264Z,17.36
2023-02-23T05:25:24.249Z,17.40
2023-02-23T05:26:24.265Z,17.34
2023-02-23T05:27:24.232Z,17.31
2023-02-23T05:28:24.248Z,17.33
2023-02-23T05:29:24.234Z,17.30
2023-02-23T05:30:24.335Z,17.26
2023-02-23T05:31:24.355Z,17.31
2023-02-23T05:32:24.316Z,17.31
2023-02-23T05:33:24.255Z,17.33
2023-02-23T05:34:24.211Z,17.30
2023-02-23T05:35:24.210Z,17.33
2023-02-23T05:36:24.222Z,17.33
2023-02-23T05:37:24.215Z,17.33
2023-02-23T05:38:24.209Z,17.31
2023-02-23T05:39:24.217Z,17.31
2023-02-23T05:40:24.193Z,17.37
2023-02-23T05:41:24.204Z,17.31
2023-02-23T05:42:24.184Z,17.31
2023-02-23T05:43:24.168Z,17.28
2023-02-23T05:44:24.165Z,17.31
2023-02-23T05:45:24.180Z,17.30
2023-02-23T05:46:24.310Z,17.26
2023-02-23T05:47:24.184Z,17.30
2023-02-23T05:48:24.166Z,17.34
2023-02-23T05:49:24.162Z,17.38
2023-02-23T05:50:24.139Z,17.26
2023-02-23T05:51:24.153Z,17.33
2023-02-23T05:52:24.130Z,17.33
2023-02-23T05:53:24.135Z,17.33
2023-02-23T05:54:24.127Z,17.31
2023-02-23T05:55:24.129Z,17.34
2023-02-23T05:56:24.135Z,17.33
2023-02-23T05:57:24.112Z,17.36
2023-02-23T05:58:24.121Z,17.33
2023-02-23T05:59:24.097Z,17.26
2023-02-23T06:00:24.104Z,17.33
2023-02-23T06:01:24.116Z,17.30
2023-02-23T06:02:24.108Z,17.34
2023-02-23T06:03:24.153Z,17.33
2023-02-23T06:04:24.100Z,17.30
2023-02-23T06:05:24.108Z,17.31
2023-02-23T06:06:24.092Z,17.28
2023-02-23T06:07:24.076Z,17.34
2023-02-23T06:08:24.096Z,17.28
2023-02-23T06:09:24.072Z,17.31
2023-02-23T06:10:24.062Z,17.31
2023-02-23T06:11:24.060Z,17.34
2023-02-23T06:12:24.076Z,17.37
2023-02-23T06:13:24.044Z,17.31
2023-02-23T06:14:24.062Z,17.37
2023-02-23T06:15:24.053Z,17.34
2023-02-23T06:16:24.114Z,17.31
2023-02-23T06:17:24.037Z,17.30
2023-02-23T06:18:24.046Z,17.31
2023-02-23T06:19:24.022Z,17.34
2023-02-23T06:20:24.029Z,17.34
2023-02-23T06:21:24.032Z,17.30
2023-02-23T06:22:24.029Z,17.37
2023-02-23T06:23:24.004Z,17.34
2023-02-23T06:24:24.022Z,17.28
2023-02-23T06:25:24.001Z,17.33
2023-02-23T06:26:24.017Z,17.31
2023-02-23T06:27:23.987Z,17.37
2023-02-23T06:28:23.985Z,17.33
2023-02-23T06:29:23.995Z,17.31
2023-02-23T06:30:24.007Z,17.37
2023-02-23T06:31:24.026Z,17.31
2023-02-23T06:32:23.989Z,17.30
2023-02-23T06:33:23.968Z,17.33
2023-02-23T06:34:23.977Z,17.30
2023-02-23T06:35:23.966Z,17.33
2023-02-23T06:36:23.955Z,17.37
2023-02-23T06:37:24.099Z,17.31
2023-02-23T06:38:24.007Z,17.36
2023-02-23T06:39:23.960Z,17.34
2023-02-23T06:40:23.943Z,17.30
2023-02-23T06:41:23.945Z,17.31
2023-02-23T06:42:23.932Z,17.31
2023-02-23T06:43:23.950Z,17.37
2023-02-23T06:44:23.937Z,17.31
2023-02-23T06:45:23.937Z,17.37
2023-02-23T06:46:23.939Z,17.31
2023-02-23T06:47:23.903Z,17.37
2023-02-23T06:48:23.914Z,17.30
2023-02-23T06:49:23.918Z,17.34
2023-02-23T06:50:23.910Z,17.33
2023-02-23T06:51:23.914Z,17.31
2023-02-23T06:52:23.895Z,17.28
2023-02-23T06:53:23.928Z,17.34
2023-02-23T06:54:23.915Z,17.28
2023-02-23T06:55:23.869Z,17.28
2023-02-23T06:56:23.871Z,17.33
2023-02-23T06:57:23.887Z,17.33
2023-02-23T06:58:23.883Z,17.33
2023-02-23T06:59:23.873Z,17.30
2023-02-23T07:00:23.881Z,17.31
2023-02-23T07:01:23.863Z,17.34
2023-02-23T07:02:23.866Z,17.33
2023-02-23T07:03:23.861Z,17.34
2023-02-23T07:04:23.991Z,17.34
2023-02-23T07:05:23.841Z,17.31
2023-02-23T07:06:23.841Z,17.34
2023-02-23T07:07:23.835Z,17.31
2023-02-23T07:08:23.852Z,17.34
2023-02-23T07:09:23.865Z,17.36
2023-02-23T07:10:23.810Z,17.36
2023-02-23T07:11:23.818Z,17.31
2023-02-23T07:12:23.823Z,17.34
2023-02-23T07:13:23.795Z,17.31
2023-02-23T07:14:26.849Z,17.34
2023-02-23T07:15:23.790Z,17.36
2023-02-23T07:16:23.846Z,17.34
2023-02-23T07:17:23.805Z,17.31
2023-02-23T07:18:23.786Z,17.30
2023-02-23T07:19:23.773Z,17.34
2023-02-23T07:20:23.796Z,17.33
2023-02-23T07:21:23.770Z,17.33
2023-02-23T07:22:23.758Z,17.28
2023-02-23T07:23:23.772Z,17.28
2023-02-23T07:24:23.751Z,17.28
2023-02-23T07:25:23.774Z,17.31
2023-02-23T07:26:23.769Z,17.31
2023-02-23T07:27:23.741Z,17.28
2023-02-23T07:28:23.746Z,17.26
2023-02-23T07:29:23.732Z,17.31
2023-02-23T07:30:23.725Z,17.25
2023-02-23T07:31:23.896Z,17.30
2023-02-23T07:32:23.874Z,17.34
2023-02-23T07:33:23.733Z,17.30
2023-02-23T07:34:23.725Z,17.33
2023-02-23T07:35:23.710Z,17.31
2023-02-23T07:36:23.706Z,17.33
2023-02-23T07:37:23.731Z,17.26
2023-02-23T07:38:23.699Z,17.30
2023-02-23T07:39:23.699Z,17.30
2023-02-23T07:40:23.703Z,17.31
2023-02-23T07:41:23.811Z,17.28
2023-02-23T07:42:23.680Z,17.26
2023-02-23T07:43:23.688Z,17.30
2023-02-23T07:44:23.688Z,17.33
2023-02-23T07:45:23.678Z,17.31
2023-02-23T07:46:23.677Z,17.28
2023-02-23T07:47:23.693Z,17.30
2023-02-23T07:48:23.661Z,17.31
2023-02-23T07:49:23.662Z,17.26
2023-02-23T07:50:23.657Z,17.23
2023-02-23T07:51:23.664Z,17.25
2023-02-23T07:52:23.642Z,17.26
2023-02-23T07:53:23.642Z,17.28
2023-02-23T07:54:23.642Z,17.22
2023-02-23T07:55:23.659Z,17.26
2023-02-23T07:56:23.624Z,17.31
2023-02-23T07:57:25.003Z,17.31
2023-02-23T07:58:23.627Z,17.19
2023-02-23T07:59:23.623Z,17.28
2023-02-23T08:00:23.616Z,17.21
2023-02-23T08:01:23.727Z,17.26
2023-02-23T08:02:23.617Z,17.23
2023-02-23T08:03:23.629Z,17.23
2023-02-23T08:04:23.665Z,17.25
2023-02-23T08:05:26.209Z,17.30
2023-02-23T08:06:23.601Z,17.33
2023-02-23T08:07:23.604Z,17.16
2023-02-23T08:08:23.583Z,17.19
2023-02-23T08:09:23.604Z,17.33
2023-02-23T08:10:23.589Z,17.30
2023-02-23T08:11:23.588Z,17.19
2023-02-23T08:12:23.588Z,17.16
2023-02-23T08:13:23.598Z,17.14
2023-02-23T08:14:23.596Z,17.22
2023-02-23T08:15:23.553Z,17.18
2023-02-23T08:16:23.587Z,17.30
2023-02-23T08:17:23.550Z,17.16
2023-02-23T08:18:23.638Z,17.21
2023-02-23T08:19:23.569Z,17.33
2023-02-23T08:20:23.547Z,17.30
2023-02-23T08:21:23.563Z,17.18
2023-02-23T08:22:23.539Z,17.18
2023-02-23T08:23:23.545Z,17.18
2023-02-23T08:24:23.518Z,17.19
2023-02-23T08:25:23.527Z,17.23
2023-02-23T08:26:23.529Z,17.16
2023-02-23T08:27:23.526Z,17.18
2023-02-23T08:28:23.518Z,17.33
2023-02-23T08:29:23.571Z,17.22
2023-02-23T08:30:23.505Z,17.33
2023-02-23T08:31:25.008Z,17.31
2023-02-23T08:32:23.498Z,17.19
2023-02-23T08:33:23.514Z,17.26
2023-02-23T08:34:23.480Z,17.18
2023-02-23T08:35:23.500Z,17.16
2023-02-23T08:36:23.502Z,17.23
2023-02-23T08:37:23.471Z,17.30
2023-02-23T08:38:23.468Z,17.33
2023-02-23T08:39:23.462Z,17.18
2023-02-23T08:40:23.451Z,17.22
2023-02-23T08:41:23.467Z,17.19
2023-02-23T08:42:23.465Z,17.28
2023-02-23T08:43:23.461Z,17.25
2023-02-23T08:44:23.462Z,17.14
2023-02-23T08:45:23.473Z,17.22
2023-02-23T08:46:23.459Z,17.23
2023-02-23T08:47:23.449Z,17.30
2023-02-23T08:48:23.429Z,17.18
2023-02-23T08:49:23.442Z,17.15
2023-02-23T08:50:24.763Z,17.23
2023-02-23T08:51:23.420Z,17.23
2023-02-23T08:52:23.420Z,17.22
2023-02-23T08:53:23.420Z,17.25
2023-02-23T08:54:23.405Z,17.23
2023-02-23T08:55:23.413Z,17.31
2023-02-23T08:56:23.392Z,17.19
2023-02-23T08:57:23.393Z,17.22
2023-02-23T08:58:23.393Z,17.23
2023-02-23T08:59:23.376Z,17.22
2023-02-23T09:00:23.375Z,17.21
2023-02-23T09:01:23.458Z,17.18
2023-02-23T09:02:23.377Z,17.19
2023-02-23T09:03:23.376Z,17.21
2023-02-23T09:04:23.353Z,17.19
2023-02-23T09:05:23.439Z,17.26
2023-02-23T09:06:23.354Z,17.26
2023-02-23T09:07:23.350Z,17.31
2023-02-23T09:08:23.332Z,17.18
2023-02-23T09:09:23.361Z,17.22
2023-02-23T09:10:23.417Z,17.22
2023-02-23T09:11:23.333Z,17.18
2023-02-23T09:12:23.365Z,17.22
2023-02-23T09:13:23.323Z,17.25
2023-02-23T09:14:23.325Z,17.31
2023-02-23T09:15:23.326Z,17.18
2023-02-23T09:16:23.304Z,17.21
2023-02-23T09:17:23.334Z,17.16
2023-02-23T09:18:23.305Z,17.22
2023-02-23T09:19:23.296Z,17.22
2023-02-23T09:20:23.414Z,17.21
2023-02-23T09:21:23.300Z,17.23
2023-02-23T09:22:23.291Z,17.19
2023-02-23T09:23:23.297Z,17.25
2023-02-23T09:24:23.287Z,17.22
2023-02-23T09:25:23.267Z,17.25
2023-02-23T09:26:23.273Z,17.18
2023-02-23T09:27:23.268Z,17.16
2023-02-23T09:28:23.303Z,17.18
2023-02-23T09:29:23.281Z,17.18
2023-02-23T09:30:23.303Z,17.18
2023-02-23T09:31:23.882Z,17.30
2023-02-23T09:32:23.369Z,17.22
2023-02-23T09:33:23.314Z,17.19
2023-02-23T09:34:23.311Z,17.19
2023-02-23T09:35:23.243Z,17.31
2023-02-23T09:36:23.251Z,17.22
2023-02-23T09:37:23.235Z,17.19
2023-02-23T09:38:23.347Z,17.18
2023-02-23T09:39:36.958Z,17.16
2023-02-23T09:40:23.289Z,17.19
2023-02-23T09:41:23.218Z,17.19
2023-02-23T09:42:23.222Z,17.22
2023-02-23T09:43:23.214Z,17.30
2023-02-23T09:44:23.215Z,17.18
2023-02-23T09:45:23.192Z,17.18
2023-02-23T09:46:23.218Z,17.18
2023-02-23T09:47:23.224Z,17.22
2023-02-23T09:48:23.205Z,17.23
2023-02-23T09:49:23.226Z,17.26
2023-02-23T09:50:23.179Z,17.30
2023-02-23T09:51:23.186Z,17.31
2023-02-23T09:52:23.165Z,17.21
2023-02-23T09:53:23.173Z,17.21
2023-02-23T09:54:23.150Z,17.30
2023-02-23T09:55:23.167Z,17.30
2023-02-23T09:56:23.144Z,17.16
2023-02-23T09:57:23.156Z,17.22
2023-02-23T09:58:23.165Z,17.21
2023-02-23T09:59:23.153Z,17.28
2023-02-23T10:00:23.130Z,17.26
2023-02-23T10:01:23.324Z,17.21
2023-02-23T10:02:23.125Z,17.19
2023-02-23T10:03:23.136Z,17.16
2023-02-23T10:04:23.184Z,17.16
2023-02-23T10:05:23.280Z,17.19
2023-02-23T10:06:23.126Z,17.25
2023-02-23T10:07:23.115Z,17.21
2023-02-23T10:08:23.100Z,17.19
2023-02-23T10:09:23.125Z,17.23
2023-02-23T10:10:23.139Z,17.19
2023-02-23T10:11:23.091Z,17.30
2023-02-23T10:12:23.086Z,17.21
2023-02-23T10:13:23.108Z,17.31
2023-02-23T10:14:23.092Z,17.33
2023-02-23T10:15:23.081Z,17.26
2023-02-23T10:16:23.088Z,17.23
2023-02-23T10:17:23.085Z,17.25
2023-02-23T10:18:23.288Z,17.19
2023-02-23T10:19:23.076Z,17.19
2023-02-23T10:20:23.091Z,17.26
2023-02-23T10:21:23.181Z,17.34
2023-02-23T10:22:23.070Z,17.22
2023-02-23T10:23:23.065Z,17.21
2023-02-23T10:24:23.047Z,17.15
2023-02-23T10:25:23.041Z,17.16
2023-02-23T10:26:23.059Z,17.15
2023-02-23T10:27:23.041Z,17.19
2023-02-23T10:28:23.047Z,17.28
2023-02-23T10:29:23.080Z,17.19
2023-02-23T10:30:23.016Z,17.23
2023-02-23T10:31:23.413Z,17.19
2023-02-23T10:32:23.177Z,17.23
2023-02-23T10:33:23.018Z,17.19
2023-02-23T10:34:23.660Z,17.18
2023-02-23T10:35:23.015Z,17.23
2023-02-23T10:36:23.005Z,17.25
2023-02-23T10:37:23.096Z,17.28
2023-02-23T10:38:22.992Z,17.18
2023-02-23T10:39:22.981Z,17.22
2023-02-23T10:40:23.007Z,17.21
2023-02-23T10:41:22.972Z,17.18
2023-02-23T10:42:22.974Z,17.14
2023-02-23T10:43:22.994Z,17.18
2023-02-23T10:44:22.980Z,17.18
2023-02-23T10:45:23.082Z,17.19
2023-02-23T10:46:23.041Z,17.18
2023-02-23T10:47:22.946Z,17.16
2023-02-23T10:48:22.979Z,17.22
2023-02-23T10:49:22.971Z,17.18
2023-02-23T10:50:22.997Z,17.15
2023-02-23T10:51:22.960Z,17.33
2023-02-23T10:52:22.936Z,17.21
2023-02-23T10:53:22.972Z,17.19
2023-02-23T10:54:22.921Z,17.15
2023-02-23T10:55:22.936Z,17.31
2023-02-23T10:56:22.915Z,17.23
2023-02-23T10:57:22.908Z,17.16
2023-02-23T10:58:22.911Z,17.30
2023-02-23T10:59:22.916Z,17.30
2023-02-23T11:00:22.894Z,17.18
2023-02-23T11:01:23.528Z,17.26
2023-02-23T11:02:22.964Z,17.19
2023-02-23T11:03:22.904Z,17.23
2023-02-23T11:04:22.986Z,17.19
2023-02-23T11:05:22.888Z,17.16
2023-02-23T11:06:22.879Z,17.16
2023-02-23T11:07:22.866Z,17.19
2023-02-23T11:08:22.894Z,17.19
2023-02-23T11:09:24.857Z,17.16
2023-02-23T11:10:22.853Z,17.22
2023-02-23T11:11:23.300Z,17.26
2023-02-23T11:12:23.047Z,17.16
2023-02-23T11:13:22.841Z,17.18
2023-02-23T11:14:22.833Z,17.14
2023-02-23T11:15:22.931Z,17.19
2023-02-23T11:16:22.868Z,17.18
2023-02-23T11:17:22.840Z,17.19
2023-02-23T11:18:22.838Z,17.15
2023-02-23T11:19:22.835Z,17.15
2023-02-23T11:20:22.829Z,17.21
2023-02-23T11:21:22.814Z,17.16
2023-02-23T11:22:22.800Z,17.16
2023-02-23T11:23:22.821Z,17.15
2023-02-23T11:24:22.904Z,17.21
2023-02-23T11:25:22.813Z,17.16
2023-02-23T11:26:23.070Z,17.15
2023-02-23T11:27:22.789Z,17.19
2023-02-23T11:28:22.797Z,17.22
2023-02-23T11:29:22.793Z,17.16
2023-02-23T11:30:22.780Z,17.19
2023-02-23T11:31:23.337Z,17.18
2023-02-23T11:32:22.979Z,17.22
2023-02-23T11:33:22.766Z,17.22
2023-02-23T11:34:22.768Z,17.16
2023-02-23T11:35:22.775Z,17.21
2023-02-23T11:36:22.757Z,17.16
2023-02-23T11:37:22.736Z,17.19
2023-02-23T11:38:22.748Z,17.15
2023-02-23T11:39:22.741Z,17.19
2023-02-23T11:40:22.742Z,17.19
2023-02-23T11:41:22.760Z,17.15
2023-02-23T11:42:22.741Z,17.19
2023-02-23T11:43:22.714Z,17.19
2023-02-23T11:44:22.736Z,17.15
2023-02-23T11:45:22.708Z,17.19
2023-02-23T11:46:23.238Z,17.22
2023-02-23T11:47:22.741Z,17.19
2023-02-23T11:48:22.718Z,17.22
2023-02-23T11:49:22.687Z,17.16
2023-02-23T11:50:22.706Z,17.19
2023-02-23T11:51:22.708Z,17.15
2023-02-23T11:52:22.788Z,17.12
2023-02-23T11:53:22.694Z,17.18
2023-02-23T11:54:22.692Z,17.21
2023-02-23T11:55:22.671Z,17.22
2023-02-23T11:56:22.683Z,17.21
2023-02-23T11:57:22.680Z,17.21
2023-02-23T11:58:22.686Z,17.16
2023-02-23T11:59:22.669Z,17.16
2023-02-23T12:00:22.653Z,17.15
2023-02-23T12:01:22.656Z,17.14
2023-02-23T12:02:22.647Z,17.16
2023-02-23T12:03:22.728Z,17.19
2023-02-23T12:04:22.635Z,17.21
2023-02-23T12:05:22.628Z,17.21
2023-02-23T12:06:22.895Z,17.19
2023-02-23T12:07:22.632Z,17.22
2023-02-23T12:08:22.622Z,17.21
2023-02-23T12:09:22.633Z,17.16
2023-02-23T12:10:22.661Z,17.21
2023-02-23T12:11:22.607Z,17.16
2023-02-23T12:12:22.606Z,17.21
2023-02-23T12:13:22.781Z,17.15
2023-02-23T12:14:22.604Z,17.19
2023-02-23T12:15:22.605Z,17.14
2023-02-23T12:16:22.808Z,17.15
2023-02-23T12:17:22.712Z,17.19
2023-02-23T12:18:22.595Z,17.19
2023-02-23T12:19:22.589Z,17.19
2023-02-23T12:20:22.589Z,17.19
2023-02-23T12:21:22.580Z,17.18
2023-02-23T12:22:22.580Z,17.16
2023-02-23T12:23:22.572Z,17.21
2023-02-23T12:24:22.572Z,17.19
2023-02-23T12:25:22.573Z,17.21
2023-02-23T12:26:22.555Z,17.15
2023-02-23T12:27:22.710Z,17.18
2023-02-23T12:28:22.556Z,17.23
2023-02-23T12:29:22.591Z,17.21
2023-02-23T12:30:22.533Z,17.16
2023-02-23T12:31:22.548Z,17.18
2023-02-23T12:32:22.661Z,17.19
2023-02-23T12:33:22.524Z,17.18
2023-02-23T12:34:22.536Z,17.15
2023-02-23T12:35:22.530Z,17.12
2023-02-23T12:36:22.521Z,17.19
2023-02-23T12:37:22.539Z,17.18
2023-02-23T12:38:22.515Z,17.16
2023-02-23T12:39:22.521Z,17.19
2023-02-23T12:40:22.498Z,17.12
2023-02-23T12:41:22.526Z,17.16
2023-02-23T12:42:22.512Z,17.19
2023-02-23T12:43:22.500Z,17.18
2023-02-23T12:44:22.526Z,17.18
2023-02-23T12:45:22.511Z,17.18
2023-02-23T12:46:23.006Z,17.15
2023-02-23T12:47:22.484Z,17.19
2023-02-23T12:48:22.460Z,17.21
2023-02-23T12:49:22.454Z,17.21
2023-02-23T12:50:22.450Z,17.15
2023-02-23T12:51:22.459Z,17.19
2023-02-23T12:52:22.471Z,17.21